Aeroporto :
LOGIN :

Iscrizione | Disclaimer

   EN    FR    IT 

 










Sommario :    VFR   VFR Marginale   IFR   IFR Intensivo   IFR Molto Intensivo
Visibilità : 
Base nubi : 
>= 8 km
>= 3000ft
5 / 8 km
1000 / 3000 ft
1500m / 5 km
500 / 1000 ft
800 / 1500m
200 / 500 ft
< 800m
< 200 ft
Simboli :   Temporali  Nebbia  Neve Forte  Precipitazioni Forti  Vento > 20 kt
SIGMETs :   Varie  Temporali  Ghiacco  Turbolenza  Onda orograficha  Ceneri Vulcaniche






- Altitudine del aeroporto : 465 ft
- Codice IATA : LEJ


EDDP - Leipzig Halle

ULTIMO METAR :
  • 141850Z 10009KT CAVOK 15/13 Q1011 NOSIG

METARs OBSOLETI :
  • 141820Z 10008KT CAVOK 16/14 Q1012 NOSIG
  • 141750Z 10008KT CAVOK 17/14 Q1012 NOSIG
  • 141720Z 09008KT CAVOK 19/15 Q1012 NOSIG
  • 141650Z 10009KT CAVOK 18/15 Q1012 NOSIG
  • 141620Z 08008KT CAVOK 19/15 Q1012 NOSIG

TAF TAF EDDP
Valido dal 14 a 18 ore il 15 a 18 ore UTC


141700Z 1418/1518 10008KT CAVOK
BECMG 1501/1504 16005KT



MetMap, La meteo Aeronautica in un colpo d'occhio ! - Copyright ORBIFLY Dicembre 2007 - Disclaimer

ORBIFLY MET'MAP TEAM :

Programmazione e sviluppo : Alexandra Zaïnal
Concezione e sviluppo : Baudouin d'Aumeries
Co-Programmazione e sviluppo : Marc-Olivier Méhu
Supporto tecnico e logistico : Manuel Goepfert
Aiuto per la traduzione : Arnaldo La Scala

Contatto : metmap@orbifly.com




FONTI E CREDITI :

   NOAA